createdAt,value
2019-05-07T00:01:56.646Z,13.20
2019-05-07T00:04:27.559Z,9.48
2019-05-07T00:07:02.220Z,9.15
2019-05-07T00:09:29.475Z,9.43
2019-05-07T00:11:59.762Z,11.05
2019-05-07T00:14:29.322Z,8.93
2019-05-07T00:17:02.247Z,9.08
2019-05-07T00:19:32.516Z,9.53
2019-05-07T00:22:02.486Z,8.05
2019-05-07T00:24:33.170Z,9.65
2019-05-07T00:27:03.042Z,12.10
2019-05-07T00:29:32.623Z,10.48
2019-05-07T00:32:03.456Z,10.15
2019-05-07T00:34:34.808Z,8.90
2019-05-07T00:37:12.928Z,9.48
2019-05-07T00:39:55.372Z,9.43
2019-05-07T00:42:28.203Z,9.78
2019-05-07T00:45:16.814Z,8.90
2019-05-07T00:47:52.667Z,8.63
2019-05-07T00:50:23.797Z,8.53
2019-05-07T00:52:53.348Z,9.05
2019-05-07T00:55:22.869Z,10.45
2019-05-07T00:57:52.689Z,8.90
2019-05-07T01:00:23.732Z,8.65
2019-05-07T01:02:53.312Z,10.20
2019-05-07T01:05:23.188Z,9.15
2019-05-07T01:07:53.091Z,9.65
2019-05-07T01:10:22.974Z,9.23
2019-05-07T01:12:53.933Z,8.80
2019-05-07T01:15:31.060Z,9.83
2019-05-07T01:17:54.951Z,9.03
2019-05-07T01:20:25.631Z,8.53
2019-05-07T01:22:55.144Z,9.03
2019-05-07T01:25:24.663Z,9.43
2019-05-07T01:27:55.167Z,9.13
2019-05-07T01:30:26.079Z,9.18
2019-05-07T01:33:02.752Z,11.18
2019-05-07T01:35:47.665Z,8.90
2019-05-07T01:38:18.985Z,9.30
2019-05-07T01:40:48.490Z,8.85
2019-05-07T01:43:18.021Z,9.75
2019-05-07T01:45:49.812Z,8.55
2019-05-07T01:48:19.191Z,8.70
2019-05-07T01:50:48.700Z,8.78
2019-05-07T01:53:19.928Z,8.80
2019-05-07T01:55:49.464Z,8.23
2019-05-07T01:58:18.936Z,9.30
2019-05-07T02:00:48.547Z,11.30
2019-05-07T02:03:25.994Z,8.63
2019-05-07T02:05:58.711Z,7.70
2019-05-07T02:08:42.443Z,7.90
2019-05-07T02:11:13.794Z,8.35
2019-05-07T02:13:43.566Z,8.45
2019-05-07T02:16:13.105Z,8.70
2019-05-07T02:18:42.606Z,9.40
2019-05-07T02:21:12.857Z,8.08
2019-05-07T02:23:42.730Z,9.10
2019-05-07T02:26:13.380Z,8.90
2019-05-07T02:28:43.156Z,10.40
2019-05-07T02:31:14.988Z,8.10
2019-05-07T02:33:43.931Z,8.00
2019-05-07T02:36:14.844Z,9.00
2019-05-07T02:38:45.978Z,13.35
2019-05-07T02:41:19.833Z,9.10
2019-05-07T02:43:49.424Z,9.65
2019-05-07T02:46:30.489Z,8.60
2019-05-07T02:49:03.196Z,9.58
2019-05-07T02:51:53.189Z,11.25
2019-05-07T02:54:24.439Z,9.73
2019-05-07T02:56:57.254Z,9.20
2019-05-07T02:59:26.839Z,8.43
2019-05-07T03:01:57.620Z,9.58
2019-05-07T03:04:27.089Z,8.30
2019-05-07T03:06:57.897Z,8.63
2019-05-07T03:09:27.370Z,9.73
2019-05-07T03:11:56.971Z,11.83
2019-05-07T03:14:26.472Z,8.10
2019-05-07T03:16:57.411Z,9.83
2019-05-07T03:19:27.532Z,7.80
2019-05-07T03:21:58.362Z,8.60
2019-05-07T03:24:29.472Z,9.10
2019-05-07T03:27:02.867Z,9.90
2019-05-07T03:29:33.366Z,9.05
2019-05-07T03:32:27.666Z,9.63
2019-05-07T03:35:05.901Z,8.28
2019-05-07T03:37:36.305Z,9.20
2019-05-07T03:40:06.437Z,13.68
2019-05-07T03:42:37.254Z,9.50
2019-05-07T03:45:24.908Z,11.12
2019-05-07T03:48:13.537Z,9.80
2019-05-07T03:50:43.612Z,12.18
2019-05-07T03:53:14.431Z,9.73
2019-05-07T03:55:45.204Z,12.37
2019-05-07T03:58:14.982Z,10.72
2019-05-07T04:00:45.954Z,10.08
2019-05-07T04:03:19.427Z,10.93
2019-05-07T04:05:46.656Z,10.15
2019-05-07T04:08:16.110Z,9.18
2019-05-07T04:10:47.891Z,9.25
2019-05-07T04:13:17.392Z,10.18
2019-05-07T04:15:46.865Z,9.90
2019-05-07T04:18:16.273Z,10.10
2019-05-07T04:20:45.715Z,10.60
2019-05-07T04:23:15.128Z,11.80
2019-05-07T04:25:47.534Z,11.25
2019-05-07T04:28:24.319Z,14.87
2019-05-07T04:30:54.454Z,13.75
2019-05-07T04:33:25.531Z,11.18
2019-05-07T04:35:58.076Z,12.78
2019-05-07T04:38:27.685Z,11.12
2019-05-07T04:40:58.600Z,11.60
2019-05-07T04:43:28.004Z,9.70
2019-05-07T04:45:58.887Z,9.65
2019-05-07T04:48:28.290Z,13.60
2019-05-07T04:51:03.373Z,10.55
2019-05-07T04:53:32.846Z,12.53
2019-05-07T04:56:03.281Z,10.20
2019-05-07T04:58:33.734Z,10.90
2019-05-07T05:01:05.172Z,12.53
2019-05-07T05:03:38.987Z,11.78
2019-05-07T05:06:07.616Z,10.80
2019-05-07T05:08:37.028Z,16.63
2019-05-07T05:11:06.469Z,12.50
2019-05-07T05:13:35.954Z,13.10
2019-05-07T05:16:24.908Z,16.47
2019-05-07T05:18:54.891Z,13.87
2019-05-07T05:21:32.936Z,10.60
2019-05-07T05:24:04.040Z,11.97
2019-05-07T05:26:33.543Z,11.83
2019-05-07T05:29:03.030Z,12.67
2019-05-07T05:31:33.121Z,13.10
2019-05-07T05:34:02.662Z,18.13
2019-05-07T05:36:33.019Z,19.30
2019-05-07T05:39:02.827Z,16.23
2019-05-07T05:41:37.752Z,17.80
2019-05-07T05:44:13.036Z,16.93
2019-05-07T05:46:44.008Z,14.53
2019-05-07T05:49:13.486Z,17.63
2019-05-07T05:51:44.563Z,18.33
2019-05-07T05:54:28.291Z,12.67
2019-05-07T05:57:07.577Z,12.33
2019-05-07T05:59:51.595Z,12.80
2019-05-07T06:02:29.571Z,12.47
2019-05-07T06:05:06.781Z,13.53
2019-05-07T06:07:39.342Z,11.70
2019-05-07T06:10:12.716Z,11.37
2019-05-07T06:12:47.110Z,11.63
2019-05-07T06:15:32.630Z,13.63
2019-05-07T06:18:18.780Z,12.40
2019-05-07T06:20:42.981Z,14.20
2019-05-07T06:23:22.633Z,13.47
2019-05-07T06:25:53.676Z,12.60
2019-05-07T06:28:23.174Z,15.07
2019-05-07T06:30:52.914Z,9.40
2019-05-07T06:33:23.170Z,10.47
2019-05-07T06:35:52.640Z,10.17
2019-05-07T06:38:23.338Z,9.97
2019-05-07T06:41:12.227Z,10.00
2019-05-07T06:43:43.392Z,10.00
2019-05-07T06:46:14.264Z,9.27
2019-05-07T06:48:46.253Z,8.40
2019-05-07T06:51:17.611Z,8.80
2019-05-07T06:53:49.166Z,7.80
2019-05-07T06:56:19.874Z,8.53
2019-05-07T06:58:52.658Z,9.83
2019-05-07T07:01:23.600Z,9.77
2019-05-07T07:04:03.585Z,7.70
2019-05-07T07:06:36.111Z,9.43
2019-05-07T07:09:22.106Z,10.73
2019-05-07T07:12:09.013Z,7.77
2019-05-07T07:14:38.518Z,10.87
2019-05-07T07:17:08.003Z,10.80
2019-05-07T07:19:37.506Z,9.43
2019-05-07T07:22:08.279Z,8.80
2019-05-07T07:24:37.719Z,8.77
2019-05-07T07:27:08.398Z,10.80
2019-05-07T07:29:44.990Z,9.50
2019-05-07T07:32:16.827Z,9.23
2019-05-07T07:34:47.970Z,10.07
2019-05-07T07:37:22.939Z,10.37
2019-05-07T07:39:54.109Z,8.20
2019-05-07T07:42:25.081Z,8.53
2019-05-07T07:45:12.600Z,8.23
2019-05-07T07:47:43.745Z,9.03
2019-05-07T07:50:13.251Z,6.40
2019-05-07T07:52:44.075Z,6.40
2019-05-07T07:55:15.015Z,6.40
2019-05-07T07:57:52.066Z,6.87
2019-05-07T08:00:32.838Z,5.80
2019-05-07T08:03:04.144Z,5.57
2019-05-07T08:05:34.939Z,5.30
2019-05-07T08:08:04.478Z,6.23
2019-05-07T08:10:34.189Z,5.70
2019-05-07T08:13:03.668Z,6.17
2019-05-07T08:15:33.281Z,4.70
2019-05-07T08:18:03.018Z,6.27
2019-05-07T08:20:32.880Z,6.50
2019-05-07T08:23:02.980Z,5.97
2019-05-07T08:25:48.977Z,5.33
2019-05-07T08:28:19.191Z,6.40
2019-05-07T08:30:53.185Z,4.97
2019-05-07T08:33:39.344Z,5.43
2019-05-07T08:36:12.062Z,5.73
2019-05-07T08:38:52.876Z,4.33
2019-05-07T08:41:24.283Z,5.33
2019-05-07T08:44:08.368Z,5.07
2019-05-07T08:46:35.125Z,5.83
2019-05-07T08:49:06.151Z,4.80
2019-05-07T08:51:36.955Z,4.90
2019-05-07T08:54:06.430Z,5.13
2019-05-07T08:56:38.959Z,5.43
2019-05-07T08:59:08.439Z,5.37
2019-05-07T09:01:43.075Z,5.30
2019-05-07T09:04:13.486Z,4.30
2019-05-07T09:06:44.330Z,5.00
2019-05-07T09:09:13.894Z,5.20
2019-05-07T09:11:43.691Z,7.60
2019-05-07T09:14:13.475Z,7.20
2019-05-07T09:16:44.293Z,5.07
2019-05-07T09:19:13.696Z,5.60
2019-05-07T09:21:43.247Z,5.67
2019-05-07T09:24:12.655Z,4.60
2019-05-07T09:27:00.169Z,5.33
2019-05-07T09:29:37.245Z,5.03
2019-05-07T09:32:18.290Z,5.57
2019-05-07T09:34:53.935Z,5.33
2019-05-07T09:37:32.570Z,5.13
2019-05-07T09:40:02.915Z,4.33
2019-05-07T09:42:33.950Z,4.50
2019-05-07T09:45:04.832Z,4.80
2019-05-07T09:47:35.747Z,4.70
2019-05-07T09:50:08.182Z,6.13
2019-05-07T09:52:38.802Z,5.83
2019-05-07T09:55:14.899Z,5.57
2019-05-07T09:57:42.491Z,5.40
2019-05-07T10:00:12.409Z,5.33
2019-05-07T10:02:43.278Z,6.40
2019-05-07T10:05:12.758Z,4.47
2019-05-07T10:07:43.685Z,5.10
2019-05-07T10:10:13.123Z,5.10
2019-05-07T10:12:45.542Z,6.63
2019-05-07T10:15:15.118Z,4.70
2019-05-07T10:17:53.477Z,5.27
2019-05-07T10:20:23.081Z,5.80
2019-05-07T10:22:52.682Z,5.53
2019-05-07T10:25:25.030Z,5.93
2019-05-07T10:27:54.510Z,6.40
2019-05-07T10:30:23.950Z,5.87
2019-05-07T10:32:53.438Z,4.73
2019-05-07T10:35:24.429Z,4.60
2019-05-07T10:37:53.898Z,5.27
2019-05-07T10:40:23.521Z,5.93
2019-05-07T10:42:53.083Z,5.07
2019-05-07T10:45:28.591Z,5.33
2019-05-07T10:48:16.031Z,5.67
2019-05-07T10:50:51.618Z,6.30
2019-05-07T10:53:22.834Z,5.10
2019-05-07T10:55:53.393Z,4.07
2019-05-07T10:58:22.858Z,5.90
2019-05-07T11:00:52.395Z,4.63
2019-05-07T11:03:22.003Z,4.90
2019-05-07T11:05:51.479Z,4.83
2019-05-07T11:08:22.196Z,3.83
2019-05-07T11:10:53.063Z,4.93
2019-05-07T11:13:22.534Z,4.80
2019-05-07T11:15:54.991Z,4.50
2019-05-07T11:18:26.094Z,5.70
2019-05-07T11:20:55.606Z,5.17
2019-05-07T11:23:25.006Z,5.67
2019-05-07T11:25:54.451Z,5.53
2019-05-07T11:28:23.919Z,6.30
2019-05-07T11:30:53.497Z,5.17
2019-05-07T11:33:22.977Z,5.83
2019-05-07T11:35:52.910Z,5.80
2019-05-07T11:38:24.899Z,4.83
2019-05-07T11:40:54.908Z,6.00
2019-05-07T11:43:25.956Z,6.70
2019-05-07T11:45:58.901Z,4.73
2019-05-07T11:48:28.770Z,6.10
2019-05-07T11:51:12.310Z,6.40
2019-05-07T11:54:02.086Z,6.37
2019-05-07T11:56:33.202Z,6.43
2019-05-07T11:59:03.699Z,7.30
2019-05-07T12:01:44.508Z,6.70
2019-05-07T12:04:06.572Z,5.97
2019-05-07T12:06:37.293Z,6.20
2019-05-07T12:09:07.914Z,7.33
2019-05-07T12:11:38.886Z,6.80
2019-05-07T12:14:08.360Z,6.80
2019-05-07T12:16:39.170Z,7.87
2019-05-07T12:19:08.650Z,8.37
2019-05-07T12:21:38.148Z,7.43
2019-05-07T12:24:07.550Z,6.27
2019-05-07T12:26:41.613Z,7.07
2019-05-07T12:29:11.810Z,6.77
2019-05-07T12:31:52.002Z,6.93
2019-05-07T12:34:23.091Z,6.33
2019-05-07T12:36:53.800Z,7.23
2019-05-07T12:39:23.207Z,6.13
2019-05-07T12:41:54.021Z,6.93
2019-05-07T12:44:23.427Z,6.87
2019-05-07T12:46:54.131Z,7.20
2019-05-07T12:49:23.535Z,7.00
2019-05-07T12:51:55.875Z,7.03
2019-05-07T12:54:36.732Z,6.50
2019-05-07T12:57:07.458Z,6.57
2019-05-07T12:59:36.937Z,6.20
2019-05-07T13:02:21.689Z,5.73
2019-05-07T13:04:41.743Z,6.90
2019-05-07T13:07:15.646Z,7.17
2019-05-07T13:09:45.041Z,5.70
2019-05-07T13:12:15.762Z,5.97
2019-05-07T13:14:45.168Z,6.27
2019-05-07T13:17:14.642Z,6.33
2019-05-07T13:19:44.086Z,6.10
2019-05-07T13:22:14.933Z,6.63
2019-05-07T13:24:44.444Z,5.70
2019-05-07T13:27:15.111Z,5.80
2019-05-07T13:29:44.962Z,6.10
2019-05-07T13:32:14.395Z,5.90
2019-05-07T13:34:43.896Z,7.07
2019-05-07T13:37:17.378Z,5.53
2019-05-07T13:39:52.044Z,5.67
2019-05-07T13:42:43.534Z,5.73
2019-05-07T13:45:16.759Z,5.67
2019-05-07T13:47:49.071Z,6.07
2019-05-07T13:50:18.518Z,5.30
2019-05-07T13:52:49.194Z,6.30
2019-05-07T13:55:18.630Z,5.93
2019-05-07T13:57:49.312Z,6.47
2019-05-07T14:00:21.852Z,6.43
2019-05-07T14:02:54.939Z,5.40
2019-05-07T14:05:23.768Z,7.20
2019-05-07T14:07:53.251Z,6.10
2019-05-07T14:10:23.965Z,6.37
2019-05-07T14:13:06.750Z,7.10
2019-05-07T14:15:24.563Z,7.17
2019-05-07T14:17:54.991Z,6.40
2019-05-07T14:20:25.956Z,7.13
2019-05-07T14:22:57.304Z,6.47
2019-05-07T14:25:27.762Z,6.23
2019-05-07T14:27:58.853Z,6.97
2019-05-07T14:30:28.323Z,11.70
2019-05-07T14:33:08.364Z,7.10
2019-05-07T14:35:53.911Z,6.53
2019-05-07T14:38:25.138Z,6.40
2019-05-07T14:40:55.811Z,6.73
2019-05-07T14:43:35.654Z,6.90
2019-05-07T14:46:05.165Z,6.40
2019-05-07T14:48:36.283Z,6.10
2019-05-07T14:51:07.346Z,6.80
2019-05-07T14:53:36.852Z,6.43
2019-05-07T14:56:07.563Z,6.50
2019-05-07T14:58:37.036Z,6.83
2019-05-07T15:01:06.799Z,6.60
2019-05-07T15:03:36.275Z,6.07
2019-05-07T15:06:07.183Z,6.20
2019-05-07T15:08:36.590Z,6.20
2019-05-07T15:11:06.032Z,6.63
2019-05-07T15:13:35.601Z,6.07
2019-05-07T15:16:06.514Z,6.37
2019-05-07T15:18:43.567Z,6.50
2019-05-07T15:21:13.583Z,6.40
2019-05-07T15:23:43.061Z,5.90
2019-05-07T15:26:15.858Z,7.20
2019-05-07T15:28:46.993Z,6.63
2019-05-07T15:31:22.229Z,6.77
2019-05-07T15:33:52.288Z,5.30
2019-05-07T15:36:23.338Z,6.60
2019-05-07T15:38:52.816Z,6.17
2019-05-07T15:41:23.638Z,6.20
2019-05-07T15:43:53.139Z,6.17
2019-05-07T15:46:23.882Z,5.17
2019-05-07T15:48:53.318Z,6.07
2019-05-07T15:51:22.730Z,5.67
2019-05-07T15:53:53.808Z,5.63
2019-05-07T15:56:24.482Z,10.20
2019-05-07T15:58:53.990Z,5.93
2019-05-07T16:01:24.771Z,7.60
2019-05-07T16:03:54.970Z,6.33
2019-05-07T16:06:26.193Z,6.87
2019-05-07T16:08:57.284Z,6.30
2019-05-07T16:11:32.185Z,6.40
2019-05-07T16:14:06.645Z,5.83
2019-05-07T16:16:42.830Z,6.07
2019-05-07T16:19:16.466Z,6.63
2019-05-07T16:21:45.878Z,6.73
2019-05-07T16:24:15.390Z,6.60
2019-05-07T16:26:46.171Z,7.13
2019-05-07T16:29:15.674Z,5.97
2019-05-07T16:31:48.684Z,7.27
2019-05-07T16:34:17.407Z,6.80
2019-05-07T16:36:48.243Z,6.73
2019-05-07T16:39:17.782Z,7.57
2019-05-07T16:41:47.562Z,7.87
2019-05-07T16:44:17.073Z,6.10
2019-05-07T16:46:47.844Z,7.20
2019-05-07T16:49:17.286Z,7.27
2019-05-07T16:51:46.767Z,6.67
2019-05-07T16:54:16.214Z,6.63
2019-05-07T16:57:05.069Z,7.93
2019-05-07T16:59:34.678Z,6.90
2019-05-07T17:02:07.275Z,7.13
2019-05-07T17:04:36.950Z,6.53
2019-05-07T17:07:09.368Z,7.07
2019-05-07T17:09:38.875Z,7.93
2019-05-07T17:12:10.005Z,7.23
2019-05-07T17:14:39.468Z,6.40
2019-05-07T17:17:11.969Z,7.07
2019-05-07T17:19:42.584Z,7.70
2019-05-07T17:22:12.171Z,6.60
2019-05-07T17:24:42.747Z,6.97
2019-05-07T17:27:12.245Z,8.27
2019-05-07T17:29:42.960Z,7.00
2019-05-07T17:32:13.655Z,7.03
2019-05-07T17:34:43.206Z,6.50
2019-05-07T17:37:14.002Z,7.03
2019-05-07T17:39:43.498Z,6.77
2019-05-07T17:42:14.181Z,6.70
2019-05-07T17:44:43.689Z,7.83
2019-05-07T17:47:13.158Z,7.53
2019-05-07T17:49:43.241Z,7.47
2019-05-07T17:52:13.923Z,8.97
2019-05-07T17:54:43.354Z,10.17
2019-05-07T17:57:15.721Z,9.50
2019-05-07T17:59:43.895Z,9.00
2019-05-07T18:02:34.222Z,11.10
2019-05-07T18:05:04.462Z,7.63
2019-05-07T18:07:36.806Z,9.50
2019-05-07T18:10:06.327Z,6.97
2019-05-07T18:12:37.235Z,10.23
2019-05-07T18:15:06.836Z,8.60
2019-05-07T18:17:39.243Z,8.00
2019-05-07T18:20:08.691Z,10.00
2019-05-07T18:22:39.467Z,11.60
2019-05-07T18:25:08.999Z,8.20
2019-05-07T18:27:41.934Z,7.80
2019-05-07T18:30:12.730Z,7.40
2019-05-07T18:32:44.922Z,7.13
2019-05-07T18:35:14.449Z,7.50
2019-05-07T18:37:52.519Z,7.50
2019-05-07T18:40:22.665Z,6.83
2019-05-07T18:42:52.525Z,7.57
2019-05-07T18:45:22.147Z,6.93
2019-05-07T18:47:51.698Z,7.07
2019-05-07T18:50:22.545Z,7.27
2019-05-07T18:52:52.469Z,7.67
2019-05-07T18:55:22.720Z,9.83
2019-05-07T18:57:52.397Z,6.90
2019-05-07T19:00:24.711Z,8.27
2019-05-07T19:02:54.207Z,7.70
2019-05-07T19:05:24.874Z,9.83
2019-05-07T19:08:04.610Z,7.10
2019-05-07T19:10:26.775Z,8.03
2019-05-07T19:12:56.340Z,8.27
2019-05-07T19:15:25.878Z,7.50
2019-05-07T19:17:55.422Z,7.70
2019-05-07T19:20:24.895Z,8.17
2019-05-07T19:22:54.707Z,7.47
2019-05-07T19:25:25.471Z,7.33
2019-05-07T19:27:55.049Z,16.00
2019-05-07T19:30:24.855Z,35.83
2019-05-07T19:32:54.943Z,25.70
2019-05-07T19:35:25.956Z,14.10
2019-05-07T19:37:55.957Z,14.87
2019-05-07T19:40:25.707Z,8.47
2019-05-07T19:42:55.444Z,9.73
2019-05-07T19:45:24.969Z,23.73
2019-05-07T19:47:55.031Z,28.03
2019-05-07T19:50:24.770Z,17.50
2019-05-07T19:52:54.713Z,10.23
2019-05-07T19:55:25.900Z,11.10
2019-05-07T19:57:57.490Z,13.90
2019-05-07T20:00:27.306Z,12.20
2019-05-07T20:03:03.380Z,8.13
2019-05-07T20:05:37.159Z,8.80
2019-05-07T20:08:06.657Z,8.67
2019-05-07T20:10:39.691Z,8.23
2019-05-07T20:13:11.854Z,8.70
2019-05-07T20:15:42.854Z,9.03
2019-05-07T20:18:12.526Z,8.83
2019-05-07T20:20:43.458Z,11.63
2019-05-07T20:23:12.958Z,8.50
2019-05-07T20:25:43.737Z,8.73
2019-05-07T20:28:16.390Z,9.73
2019-05-07T20:30:44.431Z,8.10
2019-05-07T20:33:13.939Z,8.23
2019-05-07T20:35:43.867Z,9.00
2019-05-07T20:38:13.410Z,8.10
2019-05-07T20:40:44.186Z,9.83
2019-05-07T20:43:13.703Z,8.53
2019-05-07T20:45:44.384Z,8.27
2019-05-07T20:48:13.896Z,8.37
2019-05-07T20:50:43.364Z,7.47
2019-05-07T20:53:12.871Z,7.97
2019-05-07T20:55:46.738Z,8.47
2019-05-07T20:58:16.247Z,8.30
2019-05-07T21:00:47.399Z,7.80
2019-05-07T21:03:20.117Z,8.27
2019-05-07T21:05:53.188Z,8.00
2019-05-07T21:08:23.109Z,8.40
2019-05-07T21:10:53.572Z,8.53
2019-05-07T21:13:30.924Z,9.40
2019-05-07T21:15:54.462Z,8.37
2019-05-07T21:18:23.930Z,8.73
2019-05-07T21:20:53.459Z,12.37
2019-05-07T21:23:23.326Z,9.93
2019-05-07T21:25:54.241Z,8.57
2019-05-07T21:28:23.703Z,9.47
2019-05-07T21:30:53.225Z,11.03
2019-05-07T21:33:23.099Z,9.37
2019-05-07T21:35:53.905Z,8.40
2019-05-07T21:38:23.384Z,11.43
2019-05-07T21:40:52.888Z,8.83
2019-05-07T21:43:22.485Z,8.53
2019-05-07T21:45:53.258Z,9.00
2019-05-07T21:48:22.729Z,8.27
2019-05-07T21:50:55.268Z,8.23
2019-05-07T21:53:32.466Z,9.73
2019-05-07T21:56:06.331Z,9.37
2019-05-07T21:58:46.273Z,9.57
2019-05-07T22:01:17.349Z,12.20
2019-05-07T22:03:48.767Z,11.07
2019-05-07T22:06:19.577Z,10.23
2019-05-07T22:08:49.048Z,9.03
2019-05-07T22:11:19.866Z,9.40
2019-05-07T22:13:49.411Z,9.77
2019-05-07T22:16:19.196Z,10.07
2019-05-07T22:18:48.824Z,11.50
2019-05-07T22:21:18.344Z,8.90
2019-05-07T22:23:48.036Z,11.07
2019-05-07T22:26:22.842Z,9.73
2019-05-07T22:28:48.736Z,11.23
2019-05-07T22:31:19.978Z,9.10
2019-05-07T22:33:59.308Z,9.83
2019-05-07T22:36:28.312Z,9.10
2019-05-07T22:38:57.882Z,10.03
2019-05-07T22:41:27.395Z,8.67
2019-05-07T22:43:57.076Z,9.87
2019-05-07T22:46:26.675Z,9.20
2019-05-07T22:48:56.148Z,9.23
2019-05-07T22:51:25.787Z,9.30
2019-05-07T22:53:55.254Z,8.93
2019-05-07T22:56:37.171Z,9.20
2019-05-07T22:58:58.906Z,9.13
2019-05-07T23:01:31.902Z,8.80
2019-05-07T23:04:02.741Z,10.20
2019-05-07T23:06:32.357Z,34.10
2019-05-07T23:09:02.052Z,10.23
2019-05-07T23:11:33.139Z,9.17
2019-05-07T23:14:03.801Z,9.77
2019-05-07T23:16:33.385Z,9.13
2019-05-07T23:19:02.883Z,9.83
2019-05-07T23:21:32.365Z,10.57
2019-05-07T23:24:02.177Z,10.67
2019-05-07T23:26:33.535Z,8.30
2019-05-07T23:29:02.971Z,10.50
2019-05-07T23:31:32.548Z,8.40
2019-05-07T23:34:02.086Z,10.00
2019-05-07T23:36:31.695Z,10.07
2019-05-07T23:39:02.602Z,9.40
2019-05-07T23:41:42.079Z,9.47
2019-05-07T23:44:13.663Z,10.03
2019-05-07T23:46:44.817Z,9.80
2019-05-07T23:49:14.270Z,10.90
2019-05-07T23:51:43.740Z,9.77
2019-05-07T23:54:13.254Z,11.10
2019-05-07T23:56:43.005Z,10.00
2019-05-07T23:59:14.894Z,10.60
